Tiny Sanderson — WDC2708 — position and weather

sailwx.info

Track history (hours):
 
Tides and Currents Weather Stations Pressure Air Temp Water Temp Dewpoint Dewpoint Depression Visibility Wind Speed Wind Dir Waves Ship Positions

Tiny Sanderson

Owner: Kirby Inland Marine, LP, Houston, TX. More information available from US FCC via Universal Licensing System and Coast Guard Vessel Documentation Center.

Last reported at 2017-Dec-04 10:30 UTC. Time now 2017-Dec-16 05:17 UTC.
Position N 32°17' W 090°56'.
Warning: this ship's position is 11 days out of date.

Length 208 m; draft 3 m.

Type: Towing. MMSI: 366996650.

Date/timePositionNaut miles runAvg speedWind from/ knotsBaromVisibWave heightAir tempDewpointWater temp
2017-Dec-04 10:30N 32°17' W 090°56'2 4.5
2017-Dec-04 10:00N 32°15' W 090°58'2 4.3
2017-Dec-04 09:30N 32°13' W 090°59'2 4.7
2017-Dec-04 09:00N 32°11' W 090°60'1 2.2
2017-Dec-04 08:30N 32°10' W 090°60'2 4.5
2017-Dec-04 08:00N 32°08' W 091°01'2 3.9
2017-Dec-04 07:30N 32°07' W 091°03'3 5.1
2017-Dec-04 07:00N 32°08' W 091°06'2 3.5
2017-Dec-04 06:30N 32°06' W 091°06'4 3.8
2017-Dec-04 05:31N 32°03' W 091°03'0 4.5
2017-Dec-04 05:30N 32°03' W 091°03'3 5.3
2017-Dec-04 05:00N 32°01' W 091°05'2 4.7
2017-Dec-04 04:29N 31°59' W 091°07'2 4.5
2017-Dec-04 03:56N 31°59' W 091°10'2 4.5
2017-Dec-04 03:31N 31°58' W 091°11'5 2.9
2017-Dec-04 01:49N 31°53' W 091°13'2 4.9
2017-Dec-04 01:26N 31°52' W 091°15'2 4.4
2017-Dec-04 00:59N 31°51' W 091°17'32 4.0
2017-Dec-03 16:59N 31°21' W 091°29'  
2017-Dec-01 02:27N 29°48' W 092°06'2 4.8
2017-Dec-01 02:01N 29°47' W 092°09'2 3.9
2017-Dec-01 01:31N 29°47' W 092°11'1 2.9
2017-Dec-01 01:00N 29°47' W 092°12'0 1.0
2017-Dec-01 00:30N 29°47' W 092°13'2 4.0
2017-Dec-01 00:01N 29°48' W 092°15'2 4.5
2017-Nov-30 23:30N 29°49' W 092°17'2 4.2
2017-Nov-30 23:00N 29°50' W 092°19'2 4.0
2017-Nov-30 22:30N 29°51' W 092°22'38 4.3
2017-Nov-30 13:39N 29°56' W 093°05'2 4.5
2017-Nov-30 13:16N 29°56' W 093°07'1 4.6
2017-Nov-30 12:59N 29°56' W 093°08'4 4.3
2017-Nov-30 11:56N 29°59' W 093°12'2 4.1
2017-Nov-30 11:30N 30°00' W 093°14'2 3.4
2017-Nov-30 11:00N 30°02' W 093°15'2 3.3
2017-Nov-30 10:31N 30°03' W 093°16'2 3.4
2017-Nov-30 10:00N 30°05' W 093°17'1 2.4
2017-Nov-30 09:30N 30°05' W 093°18'1 1.7
2017-Nov-30 09:00N 30°06' W 093°18'0 0.1
2017-Nov-30 08:30N 30°06' W 093°18'0 0.0
2017-Nov-30 08:00N 30°06' W 093°18'0 0.0
2017-Nov-30 07:30N 30°06' W 093°18'0 0.0
2017-Nov-30 07:01N 30°06' W 093°18'0 0.0
2017-Nov-30 06:30N 30°06' W 093°18'0 0.0
2017-Nov-30 06:01N 30°06' W 093°18'0 0.0
2017-Nov-30 05:30N 30°06' W 093°18'0 0.0
2017-Nov-30 05:00N 30°06' W 093°18'0 0.1
2017-Nov-30 04:30N 30°06' W 093°18'0 0.0
2017-Nov-30 04:01N 30°06' W 093°18'0 0.0
2017-Nov-30 03:30N 30°06' W 093°18'0 0.0
2017-Nov-30 03:00N 30°06' W 093°18'0 0.0
2017-Nov-30 02:30N 30°06' W 093°18'0 0.0
2017-Nov-30 02:00N 30°06' W 093°18'0 0.0
2017-Nov-30 01:30N 30°06' W 093°18'0 0.0
2017-Nov-30 01:00N 30°06' W 093°18'0 0.0
2017-Nov-30 00:30N 30°06' W 093°18'0 0.0
2017-Nov-30 00:00N 30°06' W 093°18'0 0.0
2017-Nov-29 23:31N 30°06' W 093°18'0 0.0
2017-Nov-29 23:01N 30°06' W 093°18'0 0.0
2017-Nov-29 22:30N 30°06' W 093°18'0 0.0
2017-Nov-29 22:00N 30°06' W 093°18'0 0.0
2017-Nov-29 21:31N 30°06' W 093°18'0 0.0
2017-Nov-29 21:00N 30°06' W 093°18'0 0.0
2017-Nov-29 20:30N 30°06' W 093°18'0 0.0
2017-Nov-29 20:00N 30°06' W 093°18'0 0.0
2017-Nov-29 19:31N 30°06' W 093°18'0 0.0
2017-Nov-29 19:00N 30°06' W 093°18'0 0.0
2017-Nov-29 18:31N 30°06' W 093°18'0 0.0
2017-Nov-29 18:00N 30°06' W 093°18'0 0.0
2017-Nov-29 17:30N 30°06' W 093°18'0 0.1
2017-Nov-29 17:00N 30°06' W 093°18'0 0.0
2017-Nov-29 16:30N 30°06' W 093°18'1 1.2
2017-Nov-29 16:00N 30°06' W 093°19'1 2.3
2017-Nov-29 15:30N 30°05' W 093°20'2 4.3
2017-Nov-29 15:00N 30°04' W 093°21'0 0.8
2017-Nov-29 14:30N 30°04' W 093°22'0 0.1
2017-Nov-29 14:00N 30°04' W 093°22'0 0.1
2017-Nov-29 13:30N 30°04' W 093°22'3 6.3
2017-Nov-29 13:00N 30°04' W 093°25'3 6.2
2017-Nov-29 12:30N 30°04' W 093°29'3 6.0
2017-Nov-29 12:00N 30°04' W 093°33'3 6.0
2017-Nov-29 11:30N 30°04' W 093°36'3 6.3
2017-Nov-29 11:00N 30°04' W 093°40'72 3.8
2017-Nov-28 16:21N 29°32' W 094°54'2 7.0
2017-Nov-28 16:00N 29°34' W 094°55'7 7.1
2017-Nov-28 15:00N 29°40' W 094°59'3 6.9
2017-Nov-28 14:30N 29°43' W 095°01'5 6.1
2017-Nov-28 13:46N 29°46' W 095°05'1 2.7
2017-Nov-28 13:28N 29°47' W 095°05'0 0.6
2017-Nov-28 12:57N 29°47' W 095°04'0 0.0
2017-Nov-28 12:30N 29°47' W 095°04'0 0.2
2017-Nov-28 10:49N 29°47' W 095°04'0 0.3
2017-Nov-28 10:29N 29°47' W 095°04'2 2.5
2017-Nov-28 09:37N 29°46' W 095°06'0 0.0
2017-Nov-27 12:54N 29°46' W 095°06'1 0.1
2017-Nov-27 07:05N 29°46' W 095°06'1 5.5
2017-Nov-27 07:00N 29°46' W 095°05'0 0.0
2017-Nov-26 23:22N 29°46' W 095°05'1 0.1
2017-Nov-26 12:06N 29°45' W 095°06'1 8.1
2017-Nov-26 12:00N 29°45' W 095°05'2 0.3
2017-Nov-26 06:09N 29°47' W 095°04'0 0.8
2017-Nov-26 05:54N 29°47' W 095°04'0 0.1
2017-Nov-26 05:12N 29°47' W 095°04'0 0.0
2017-Nov-25 20:16N 29°47' W 095°04'0 0.0
2017-Nov-25 13:29N 29°47' W 095°04'0 0.0
2017-Nov-25 12:53N 29°47' W 095°04'0 0.0
2017-Nov-25 12:29N 29°47' W 095°04'0 0.0
2017-Nov-25 11:59N 29°47' W 095°04'0 0.0
2017-Nov-25 10:53N 29°47' W 095°04'0 0.0
2017-Nov-25 10:23N 29°47' W 095°04'0 0.0
2017-Nov-25 09:17N 29°47' W 095°04'0 0.0
2017-Nov-25 08:58N 29°47' W 095°04'0 0.0
2017-Nov-25 08:12N 29°47' W 095°04'0 0.6
2017-Nov-25 08:00N 29°47' W 095°04'0 0.0
2017-Nov-25 07:31N 29°47' W 095°04'0 0.2
2017-Nov-25 06:36N 29°47' W 095°04'0 0.1
2017-Nov-25 06:26N 29°47' W 095°04'1 2.2
2017-Nov-25 05:47N 29°46' W 095°05'2 6.8
2017-Nov-25 05:31N 29°44' W 095°03'4 7.4
2017-Nov-25 05:00N 29°42' W 095°00'4 8.5
2017-Nov-25 04:30N 29°38' W 094°58'4 8.6
2017-Nov-25 04:01N 29°34' W 094°56'4 8.9
2017-Nov-25 03:31N 29°31' W 094°53'5 9.4
2017-Nov-25 03:00N 29°27' W 094°50'53 4.3
2017-Nov-24 14:47N 29°51' W 093°57'24 6.3
2017-Nov-24 11:00N 30°04' W 093°33'3 5.8
2017-Nov-24 10:30N 30°04' W 093°30'  
Track history (hours):
 
Tides and Currents Weather Stations Pressure Air Temp Water Temp Dewpoint Dewpoint Depression Visibility Wind Speed Wind Dir Waves Ship Positions

Tiny Sanderson

Owner: Kirby Inland Marine, LP, Houston, TX. More information available from US FCC via Universal Licensing System and Coast Guard Vessel Documentation Center.

Last reported at 2017-Dec-04 10:30 UTC. Time now 2017-Dec-16 05:17 UTC.
Position N 32°17' W 090°56'.
Warning: this ship's position is 11 days out of date.

Length 208 m; draft 3 m.

Type: Towing. MMSI: 366996650.

Date/timePositionNaut miles runAvg speedWind from/ knotsBaromVisibWave heightAir tempDewpointWater temp
2017-Dec-04 10:30N 32°17' W 090°56'2 4.5
2017-Dec-04 10:00N 32°15' W 090°58'2 4.3
2017-Dec-04 09:30N 32°13' W 090°59'2 4.7
2017-Dec-04 09:00N 32°11' W 090°60'1 2.2
2017-Dec-04 08:30N 32°10' W 090°60'2 4.5
2017-Dec-04 08:00N 32°08' W 091°01'2 3.9
2017-Dec-04 07:30N 32°07' W 091°03'3 5.1
2017-Dec-04 07:00N 32°08' W 091°06'2 3.5
2017-Dec-04 06:30N 32°06' W 091°06'4 3.8
2017-Dec-04 05:31N 32°03' W 091°03'0 4.5
2017-Dec-04 05:30N 32°03' W 091°03'3 5.3
2017-Dec-04 05:00N 32°01' W 091°05'2 4.7
2017-Dec-04 04:29N 31°59' W 091°07'2 4.5
2017-Dec-04 03:56N 31°59' W 091°10'2 4.5
2017-Dec-04 03:31N 31°58' W 091°11'5 2.9
2017-Dec-04 01:49N 31°53' W 091°13'2 4.9
2017-Dec-04 01:26N 31°52' W 091°15'2 4.4
2017-Dec-04 00:59N 31°51' W 091°17'32 4.0
2017-Dec-03 16:59N 31°21' W 091°29'  
2017-Dec-01 02:27N 29°48' W 092°06'2 4.8
2017-Dec-01 02:01N 29°47' W 092°09'2 3.9
2017-Dec-01 01:31N 29°47' W 092°11'1 2.9
2017-Dec-01 01:00N 29°47' W 092°12'0 1.0
2017-Dec-01 00:30N 29°47' W 092°13'2 4.0
2017-Dec-01 00:01N 29°48' W 092°15'2 4.5
2017-Nov-30 23:30N 29°49' W 092°17'2 4.2
2017-Nov-30 23:00N 29°50' W 092°19'2 4.0
2017-Nov-30 22:30N 29°51' W 092°22'38 4.3
2017-Nov-30 13:39N 29°56' W 093°05'2 4.5
2017-Nov-30 13:16N 29°56' W 093°07'1 4.6
2017-Nov-30 12:59N 29°56' W 093°08'4 4.3
2017-Nov-30 11:56N 29°59' W 093°12'2 4.1
2017-Nov-30 11:30N 30°00' W 093°14'2 3.4
2017-Nov-30 11:00N 30°02' W 093°15'2 3.3
2017-Nov-30 10:31N 30°03' W 093°16'2 3.4
2017-Nov-30 10:00N 30°05' W 093°17'1 2.4
2017-Nov-30 09:30N 30°05' W 093°18'1 1.7
2017-Nov-30 09:00N 30°06' W 093°18'0 0.1
2017-Nov-30 08:30N 30°06' W 093°18'0 0.0
2017-Nov-30 08:00N 30°06' W 093°18'0 0.0
2017-Nov-30 07:30N 30°06' W 093°18'0 0.0
2017-Nov-30 07:01N 30°06' W 093°18'0 0.0
2017-Nov-30 06:30N 30°06' W 093°18'0 0.0
2017-Nov-30 06:01N 30°06' W 093°18'0 0.0
2017-Nov-30 05:30N 30°06' W 093°18'0 0.0
2017-Nov-30 05:00N 30°06' W 093°18'0 0.1
2017-Nov-30 04:30N 30°06' W 093°18'0 0.0
2017-Nov-30 04:01N 30°06' W 093°18'0 0.0
2017-Nov-30 03:30N 30°06' W 093°18'0 0.0
2017-Nov-30 03:00N 30°06' W 093°18'0 0.0
2017-Nov-30 02:30N 30°06' W 093°18'0 0.0
2017-Nov-30 02:00N 30°06' W 093°18'0 0.0
2017-Nov-30 01:30N 30°06' W 093°18'0 0.0
2017-Nov-30 01:00N 30°06' W 093°18'0 0.0
2017-Nov-30 00:30N 30°06' W 093°18'0 0.0
2017-Nov-30 00:00N 30°06' W 093°18'0 0.0
2017-Nov-29 23:31N 30°06' W 093°18'0 0.0
2017-Nov-29 23:01N 30°06' W 093°18'0 0.0
2017-Nov-29 22:30N 30°06' W 093°18'0 0.0
2017-Nov-29 22:00N 30°06' W 093°18'0 0.0
2017-Nov-29 21:31N 30°06' W 093°18'0 0.0
2017-Nov-29 21:00N 30°06' W 093°18'0 0.0
2017-Nov-29 20:30N 30°06' W 093°18'0 0.0
2017-Nov-29 20:00N 30°06' W 093°18'0 0.0
2017-Nov-29 19:31N 30°06' W 093°18'0 0.0
2017-Nov-29 19:00N 30°06' W 093°18'0 0.0
2017-Nov-29 18:31N 30°06' W 093°18'0 0.0
2017-Nov-29 18:00N 30°06' W 093°18'0 0.0
2017-Nov-29 17:30N 30°06' W 093°18'0 0.1
2017-Nov-29 17:00N 30°06' W 093°18'0 0.0
2017-Nov-29 16:30N 30°06' W 093°18'1 1.2
2017-Nov-29 16:00N 30°06' W 093°19'1 2.3
2017-Nov-29 15:30N 30°05' W 093°20'2 4.3
2017-Nov-29 15:00N 30°04' W 093°21'0 0.8
2017-Nov-29 14:30N 30°04' W 093°22'0 0.1
2017-Nov-29 14:00N 30°04' W 093°22'0 0.1
2017-Nov-29 13:30N 30°04' W 093°22'3 6.3
2017-Nov-29 13:00N 30°04' W 093°25'3 6.2
2017-Nov-29 12:30N 30°04' W 093°29'3 6.0
2017-Nov-29 12:00N 30°04' W 093°33'3 6.0
2017-Nov-29 11:30N 30°04' W 093°36'3 6.3
2017-Nov-29 11:00N 30°04' W 093°40'72 3.8
2017-Nov-28 16:21N 29°32' W 094°54'2 7.0
2017-Nov-28 16:00N 29°34' W 094°55'7 7.1
2017-Nov-28 15:00N 29°40' W 094°59'3 6.9
2017-Nov-28 14:30N 29°43' W 095°01'5 6.1
2017-Nov-28 13:46N 29°46' W 095°05'1 2.7
2017-Nov-28 13:28N 29°47' W 095°05'0 0.6
2017-Nov-28 12:57N 29°47' W 095°04'0 0.0
2017-Nov-28 12:30N 29°47' W 095°04'0 0.2
2017-Nov-28 10:49N 29°47' W 095°04'0 0.3
2017-Nov-28 10:29N 29°47' W 095°04'2 2.5
2017-Nov-28 09:37N 29°46' W 095°06'0 0.0
2017-Nov-27 12:54N 29°46' W 095°06'1 0.1
2017-Nov-27 07:05N 29°46' W 095°06'1 5.5
2017-Nov-27 07:00N 29°46' W 095°05'0 0.0
2017-Nov-26 23:22N 29°46' W 095°05'1 0.1
2017-Nov-26 12:06N 29°45' W 095°06'1 8.1
2017-Nov-26 12:00N 29°45' W 095°05'2 0.3
2017-Nov-26 06:09N 29°47' W 095°04'0 0.8
2017-Nov-26 05:54N 29°47' W 095°04'0 0.1
2017-Nov-26 05:12N 29°47' W 095°04'0 0.0
2017-Nov-25 20:16N 29°47' W 095°04'0 0.0
2017-Nov-25 13:29N 29°47' W 095°04'0 0.0
2017-Nov-25 12:53N 29°47' W 095°04'0 0.0
2017-Nov-25 12:29N 29°47' W 095°04'0 0.0
2017-Nov-25 11:59N 29°47' W 095°04'0 0.0
2017-Nov-25 10:53N 29°47' W 095°04'0 0.0
2017-Nov-25 10:23N 29°47' W 095°04'0 0.0
2017-Nov-25 09:17N 29°47' W 095°04'0 0.0
2017-Nov-25 08:58N 29°47' W 095°04'0 0.0
2017-Nov-25 08:12N 29°47' W 095°04'0 0.6
2017-Nov-25 08:00N 29°47' W 095°04'0 0.0
2017-Nov-25 07:31N 29°47' W 095°04'0 0.2
2017-Nov-25 06:36N 29°47' W 095°04'0 0.1
2017-Nov-25 06:26N 29°47' W 095°04'1 2.2
2017-Nov-25 05:47N 29°46' W 095°05'2 6.8
2017-Nov-25 05:31N 29°44' W 095°03'4 7.4
2017-Nov-25 05:00N 29°42' W 095°00'4 8.5
2017-Nov-25 04:30N 29°38' W 094°58'4 8.6
2017-Nov-25 04:01N 29°34' W 094°56'4 8.9
2017-Nov-25 03:31N 29°31' W 094°53'5 9.4
2017-Nov-25 03:00N 29°27' W 094°50'53 4.3
2017-Nov-24 14:47N 29°51' W 093°57'24 6.3
2017-Nov-24 11:00N 30°04' W 093°33'3 5.8
2017-Nov-24 10:30N 30°04' W 093°30'  

Dump ship's entire track history